sensor_id;sensor_type;location;lat;lon;timestamp;pressure;altitude;pressure_sealevel;temperature;humidity
6433;BME280;3249;42.690;23.260;2023-04-01T00:01:40;93419.56;;;11.60;86.13
6433;BME280;3249;42.690;23.260;2023-04-01T00:04:09;93408.81;;;11.41;87.32
6433;BME280;3249;42.690;23.260;2023-04-01T00:06:38;93411.56;;;11.35;86.37
6433;BME280;3249;42.690;23.260;2023-04-01T00:09:07;93415.09;;;11.29;88.44
6433;BME280;3249;42.690;23.260;2023-04-01T00:11:36;93403.63;;;11.15;89.01
6433;BME280;3249;42.690;23.260;2023-04-01T00:14:05;93415.56;;;11.26;83.24
6433;BME280;3249;42.690;23.260;2023-04-01T00:16:37;93416.09;;;11.23;81.62
6433;BME280;3249;42.690;23.260;2023-04-01T00:19:07;93391.22;;;10.90;86.75
6433;BME280;3249;42.690;23.260;2023-04-01T00:21:36;93407.94;;;11.09;89.84
6433;BME280;3249;42.690;23.260;2023-04-01T00:24:05;93411.44;;;11.03;87.15
6433;BME280;3249;42.690;23.260;2023-04-01T00:26:34;93386.47;;;10.61;94.99
6433;BME280;3249;42.690;23.260;2023-04-01T00:29:03;93404.31;;;10.67;98.65
6433;BME280;3249;42.690;23.260;2023-04-01T00:31:32;93410.66;;;10.60;100.00
6433;BME280;3249;42.690;23.260;2023-04-01T00:34:04;93400.59;;;10.42;100.00
6433;BME280;3249;42.690;23.260;2023-04-01T00:36:33;93396.19;;;10.59;100.00
6433;BME280;3249;42.690;23.260;2023-04-01T00:39:02;93398.25;;;10.57;100.00
6433;BME280;3249;42.690;23.260;2023-04-01T00:41:31;93399.13;;;10.46;100.00
6433;BME280;3249;42.690;23.260;2023-04-01T00:44:19;93385.56;;;10.01;100.00
6433;BME280;3249;42.690;23.260;2023-04-01T00:46:49;93397.50;;;10.07;100.00
6433;BME280;3249;42.690;23.260;2023-04-01T00:49:23;93388.25;;;10.06;100.00
6433;BME280;3249;42.690;23.260;2023-04-01T00:51:55;93354.88;;;9.78;100.00
6433;BME280;3249;42.690;23.260;2023-04-01T00:54:27;93385.41;;;9.91;100.00
6433;BME280;3249;42.690;23.260;2023-04-01T00:56:59;93374.59;;;9.89;100.00
6433;BME280;3249;42.690;23.260;2023-04-01T00:59:31;93371.00;;;9.90;100.00
6433;BME280;3249;42.690;23.260;2023-04-01T01:02:02;93361.28;;;9.92;100.00
6433;BME280;3249;42.690;23.260;2023-04-01T01:04:34;93351.22;;;9.74;100.00
6433;BME280;3249;42.690;23.260;2023-04-01T01:07:12;93347.63;;;9.75;100.00
6433;BME280;3249;42.690;23.260;2023-04-01T01:09:52;93344.66;;;9.83;100.00
6433;BME280;3249;42.690;23.260;2023-04-01T01:12:29;93355.50;;;9.85;100.00
6433;BME280;3249;42.690;23.260;2023-04-01T01:15:05;93336.91;;;9.33;100.00
6433;BME280;3249;42.690;23.260;2023-04-01T01:17:45;93333.38;;;9.50;100.00
6433;BME280;3249;42.690;23.260;2023-04-01T01:20:37;93335.66;;;9.35;100.00
6433;BME280;3249;42.690;23.260;2023-04-01T01:23:36;93321.94;;;9.58;100.00
6433;BME280;3249;42.690;23.260;2023-04-01T01:29:14;93307.06;;;9.60;100.00
6433;BME280;3249;42.690;23.260;2023-04-01T01:31:56;93307.69;;;9.50;100.00
6433;BME280;3249;42.690;23.260;2023-04-01T01:34:35;93305.97;;;9.56;100.00
6433;BME280;3249;42.690;23.260;2023-04-01T01:37:14;93310.72;;;9.64;100.00
6433;BME280;3249;42.690;23.260;2023-04-01T01:39:50;93309.88;;;9.58;100.00
6433;BME280;3249;42.690;23.260;2023-04-01T01:42:22;93324.19;;;9.54;100.00
6433;BME280;3249;42.690;23.260;2023-04-01T01:44:55;93303.75;;;9.31;100.00
6433;BME280;3249;42.690;23.260;2023-04-01T01:47:28;93312.03;;;9.33;100.00
6433;BME280;3249;42.690;23.260;2023-04-01T01:49:59;93286.66;;;9.20;100.00
6433;BME280;3249;42.690;23.260;2023-04-01T01:52:32;93311.56;;;9.53;100.00
6433;BME280;3249;42.690;23.260;2023-04-01T01:55:02;93309.97;;;9.64;100.00
6433;BME280;3249;42.690;23.260;2023-04-01T01:57:44;93304.91;;;9.69;100.00
6433;BME280;3249;42.690;23.260;2023-04-01T02:00:17;93296.63;;;9.33;100.00
6433;BME280;3249;42.690;23.260;2023-04-01T02:02:48;93295.38;;;9.36;100.00
6433;BME280;3249;42.690;23.260;2023-04-01T02:05:21;93294.28;;;9.32;100.00
6433;BME280;3249;42.690;23.260;2023-04-01T02:08:01;93300.31;;;9.54;100.00
6433;BME280;3249;42.690;23.260;2023-04-01T02:10:35;93287.75;;;9.57;100.00
6433;BME280;3249;42.690;23.260;2023-04-01T02:13:10;93274.03;;;9.35;100.00
6433;BME280;3249;42.690;23.260;2023-04-01T02:15:45;93284.78;;;9.49;100.00
6433;BME280;3249;42.690;23.260;2023-04-01T02:18:18;93285.38;;;9.68;100.00
6433;BME280;3249;42.690;23.260;2023-04-01T02:20:49;93275.72;;;9.58;100.00
6433;BME280;3249;42.690;23.260;2023-04-01T02:23:21;93285.34;;;9.51;100.00
6433;BME280;3249;42.690;23.260;2023-04-01T02:25:51;93288.78;;;9.57;100.00
6433;BME280;3249;42.690;23.260;2023-04-01T02:28:20;93289.47;;;9.69;100.00
6433;BME280;3249;42.690;23.260;2023-04-01T02:30:51;93284.16;;;9.58;100.00
6433;BME280;3249;42.690;23.260;2023-04-01T02:33:21;93285.41;;;9.89;100.00
6433;BME280;3249;42.690;23.260;2023-04-01T02:35:50;93297.72;;;10.04;100.00
6433;BME280;3249;42.690;23.260;2023-04-01T02:38:22;93298.81;;;10.08;100.00
6433;BME280;3249;42.690;23.260;2023-04-01T02:40:57;93292.56;;;10.04;100.00
6433;BME280;3249;42.690;23.260;2023-04-01T02:43:26;93308.44;;;10.17;100.00
6433;BME280;3249;42.690;23.260;2023-04-01T02:45:55;93282.91;;;9.78;100.00
6433;BME280;3249;42.690;23.260;2023-04-01T02:48:25;93269.22;;;9.72;100.00
6433;BME280;3249;42.690;23.260;2023-04-01T02:50:54;93311.75;;;10.13;100.00
6433;BME280;3249;42.690;23.260;2023-04-01T02:53:26;93309.88;;;10.08;100.00
6433;BME280;3249;42.690;23.260;2023-04-01T02:55:55;93321.56;;;10.16;100.00
6433;BME280;3249;42.690;23.260;2023-04-01T02:58:24;93307.13;;;9.98;100.00
6433;BME280;3249;42.690;23.260;2023-04-01T03:00:53;93316.25;;;10.06;100.00
6433;BME280;3249;42.690;23.260;2023-04-01T03:03:22;93322.00;;;9.96;100.00
6433;BME280;3249;42.690;23.260;2023-04-01T03:05:51;93312.03;;;9.83;100.00
6433;BME280;3249;42.690;23.260;2023-04-01T03:08:21;93326.44;;;10.01;100.00
6433;BME280;3249;42.690;23.260;2023-04-01T03:10:53;93319.25;;;10.03;100.00
6433;BME280;3249;42.690;23.260;2023-04-01T03:13:22;93333.06;;;10.13;100.00
6433;BME280;3249;42.690;23.260;2023-04-01T03:15:51;93321.06;;;10.02;99.86
6433;BME280;3249;42.690;23.260;2023-04-01T03:18:21;93323.03;;;10.12;88.83
6433;BME280;3249;42.690;23.260;2023-04-01T03:20:51;93332.38;;;10.77;69.15
6433;BME280;3249;42.690;23.260;2023-04-01T03:23:20;93352.75;;;11.27;63.52
6433;BME280;3249;42.690;23.260;2023-04-01T03:25:53;93355.38;;;11.58;65.99
6433;BME280;3249;42.690;23.260;2023-04-01T03:28:21;93359.41;;;11.76;68.36
6433;BME280;3249;42.690;23.260;2023-04-01T03:30:50;93342.19;;;11.81;74.74
6433;BME280;3249;42.690;23.260;2023-04-01T03:33:19;93343.75;;;11.82;78.16
6433;BME280;3249;42.690;23.260;2023-04-01T03:35:48;93319.72;;;11.77;79.70
6433;BME280;3249;42.690;23.260;2023-04-01T03:38:18;93314.59;;;11.82;82.02
6433;BME280;3249;42.690;23.260;2023-04-01T03:40:47;93288.50;;;11.73;82.35
6433;BME280;3249;42.690;23.260;2023-04-01T03:43:19;93292.50;;;11.91;81.19
6433;BME280;3249;42.690;23.260;2023-04-01T03:45:50;93270.47;;;11.73;81.63
6433;BME280;3249;42.690;23.260;2023-04-01T03:48:20;93267.88;;;11.73;82.86
6433;BME280;3249;42.690;23.260;2023-04-01T03:50:49;93261.38;;;11.66;90.97
6433;BME280;3249;42.690;23.260;2023-04-01T03:53:19;93248.03;;;11.11;98.60
6433;BME280;3249;42.690;23.260;2023-04-01T03:55:48;93241.59;;;10.87;100.00
6433;BME280;3249;42.690;23.260;2023-04-01T03:58:20;93221.84;;;10.44;100.00
6433;BME280;3249;42.690;23.260;2023-04-01T04:00:50;93219.47;;;10.38;100.00
6433;BME280;3249;42.690;23.260;2023-04-01T04:03:18;93221.09;;;10.22;100.00
6433;BME280;3249;42.690;23.260;2023-04-01T04:05:48;93207.56;;;10.10;100.00
6433;BME280;3249;42.690;23.260;2023-04-01T04:08:18;93221.16;;;10.27;100.00
6433;BME280;3249;42.690;23.260;2023-04-01T04:10:47;93211.09;;;10.26;100.00
6433;BME280;3249;42.690;23.260;2023-04-01T04:13:19;93205.53;;;10.12;100.00
6433;BME280;3249;42.690;23.260;2023-04-01T04:15:55;93200.94;;;10.14;100.00
6433;BME280;3249;42.690;23.260;2023-04-01T04:18:24;93184.50;;;9.99;100.00
6433;BME280;3249;42.690;23.260;2023-04-01T04:20:53;93191.28;;;10.05;100.00
6433;BME280;3249;42.690;23.260;2023-04-01T04:23:22;93197.16;;;10.22;100.00
6433;BME280;3249;42.690;23.260;2023-04-01T04:25:56;93202.78;;;10.19;100.00
6433;BME280;3249;42.690;23.260;2023-04-01T04:28:29;93198.06;;;10.11;100.00
6433;BME280;3249;42.690;23.260;2023-04-01T04:30:59;93189.22;;;9.85;100.00
6433;BME280;3249;42.690;23.260;2023-04-01T04:33:32;93184.38;;;9.67;100.00
6433;BME280;3249;42.690;23.260;2023-04-01T04:36:01;93184.34;;;9.84;100.00
6433;BME280;3249;42.690;23.260;2023-04-01T04:38:31;93166.59;;;9.82;100.00
6433;BME280;3249;42.690;23.260;2023-04-01T04:41:00;93173.44;;;9.77;100.00
6433;BME280;3249;42.690;23.260;2023-04-01T04:43:32;93169.75;;;9.68;100.00
6433;BME280;3249;42.690;23.260;2023-04-01T04:46:04;93168.91;;;9.84;100.00
6433;BME280;3249;42.690;23.260;2023-04-01T04:48:34;93155.38;;;9.93;100.00
6433;BME280;3249;42.690;23.260;2023-04-01T04:51:03;93157.41;;;9.70;100.00
6433;BME280;3249;42.690;23.260;2023-04-01T04:53:32;93150.94;;;9.45;100.00
6433;BME280;3249;42.690;23.260;2023-04-01T04:56:01;93146.22;;;9.76;100.00
6433;BME280;3249;42.690;23.260;2023-04-01T04:58:46;93138.38;;;9.49;100.00
6433;BME280;3249;42.690;23.260;2023-04-01T05:01:19;93143.50;;;9.66;100.00
6433;BME280;3249;42.690;23.260;2023-04-01T05:03:48;93154.25;;;9.84;100.00
6433;BME280;3249;42.690;23.260;2023-04-01T05:06:18;93149.00;;;9.74;100.00
6433;BME280;3249;42.690;23.260;2023-04-01T05:08:47;93136.78;;;9.43;100.00
6433;BME280;3249;42.690;23.260;2023-04-01T05:11:18;93144.34;;;9.71;100.00
6433;BME280;3249;42.690;23.260;2023-04-01T05:13:52;93125.75;;;9.64;100.00
6433;BME280;3249;42.690;23.260;2023-04-01T05:16:21;93126.44;;;9.59;100.00
6433;BME280;3249;42.690;23.260;2023-04-01T05:18:50;93111.72;;;9.50;100.00
6433;BME280;3249;42.690;23.260;2023-04-01T05:21:19;93103.47;;;9.70;100.00
6433;BME280;3249;42.690;23.260;2023-04-01T05:23:48;93113.47;;;9.88;100.00
6433;BME280;3249;42.690;23.260;2023-04-01T05:26:17;93091.16;;;9.50;100.00
6433;BME280;3249;42.690;23.260;2023-04-01T05:28:46;93129.34;;;9.85;100.00
6433;BME280;3249;42.690;23.260;2023-04-01T05:31:17;93111.13;;;9.86;100.00
6433;BME280;3249;42.690;23.260;2023-04-01T05:33:48;93129.34;;;9.85;100.00
6433;BME280;3249;42.690;23.260;2023-04-01T05:36:17;93079.63;;;9.52;100.00
6433;BME280;3249;42.690;23.260;2023-04-01T05:38:46;93119.59;;;9.87;100.00
6433;BME280;3249;42.690;23.260;2023-04-01T05:41:18;93119.25;;;10.00;100.00
6433;BME280;3249;42.690;23.260;2023-04-01T05:43:47;93099.03;;;9.87;100.00
6433;BME280;3249;42.690;23.260;2023-04-01T05:46:37;93102.25;;;9.99;100.00
6433;BME280;3249;42.690;23.260;2023-04-01T05:49:25;93111.91;;;10.35;100.00
6433;BME280;3249;42.690;23.260;2023-04-01T05:51:54;93105.28;;;10.65;98.79
6433;BME280;3249;42.690;23.260;2023-04-01T05:54:23;93106.19;;;10.86;96.46
6433;BME280;3249;42.690;23.260;2023-04-01T05:56:52;93105.13;;;11.13;94.87
6433;BME280;3249;42.690;23.260;2023-04-01T05:59:21;93083.47;;;11.14;95.97
6433;BME280;3249;42.690;23.260;2023-04-01T06:01:53;93094.09;;;11.23;93.50
6433;BME280;3249;42.690;23.260;2023-04-01T06:04:22;93105.75;;;11.35;92.71
6433;BME280;3249;42.690;23.260;2023-04-01T06:06:51;93111.88;;;11.66;90.10
6433;BME280;3249;42.690;23.260;2023-04-01T06:09:26;93096.56;;;11.49;88.84
6433;BME280;3249;42.690;23.260;2023-04-01T06:12:15;93094.56;;;11.56;92.53
6433;BME280;3249;42.690;23.260;2023-04-01T06:15:01;93103.97;;;11.82;87.90
6433;BME280;3249;42.690;23.260;2023-04-01T06:17:45;93097.44;;;11.65;88.68
6433;BME280;3249;42.690;23.260;2023-04-01T06:20:23;93075.84;;;11.29;86.24
6433;BME280;3249;42.690;23.260;2023-04-01T06:23:26;93107.28;;;11.73;82.04
6433;BME280;3249;42.690;23.260;2023-04-01T06:26:08;93081.53;;;11.36;80.96
6433;BME280;3249;42.690;23.260;2023-04-01T06:29:08;93108.03;;;11.68;81.38
6433;BME280;3249;42.690;23.260;2023-04-01T06:31:52;93102.22;;;11.98;80.72
6433;BME280;3249;42.690;23.260;2023-04-01T06:34:55;93091.63;;;11.89;79.52
6433;BME280;3249;42.690;23.260;2023-04-01T06:37:52;93097.66;;;12.20;76.00
6433;BME280;3249;42.690;23.260;2023-04-01T06:43:42;93087.84;;;12.17;75.07
6433;BME280;3249;42.690;23.260;2023-04-01T06:46:42;93086.00;;;12.02;76.33
6433;BME280;3249;42.690;23.260;2023-04-01T06:49:48;93074.56;;;11.78;74.52
6433;BME280;3249;42.690;23.260;2023-04-01T06:53:02;93046.75;;;11.90;78.53
6433;BME280;3249;42.690;23.260;2023-04-01T06:56:05;93051.59;;;11.77;77.39
6433;BME280;3249;42.690;23.260;2023-04-01T06:59:12;93065.63;;;12.06;77.12
6433;BME280;3249;42.690;23.260;2023-04-01T07:01:46;93066.19;;;12.18;76.95
6433;BME280;3249;42.690;23.260;2023-04-01T07:04:20;93069.28;;;12.20;78.33
6433;BME280;3249;42.690;23.260;2023-04-01T07:06:57;93061.44;;;11.85;79.79
6433;BME280;3249;42.690;23.260;2023-04-01T07:09:31;93044.38;;;11.74;82.80
6433;BME280;3249;42.690;23.260;2023-04-01T07:12:40;93064.81;;;11.95;81.16
6433;BME280;3249;42.690;23.260;2023-04-01T07:15:24;93061.53;;;12.20;80.47
6433;BME280;3249;42.690;23.260;2023-04-01T07:17:57;93055.53;;;11.99;80.75
6433;BME280;3249;42.690;23.260;2023-04-01T07:20:29;93068.72;;;12.03;83.02
6433;BME280;3249;42.690;23.260;2023-04-01T07:23:07;93061.03;;;12.23;80.71
6433;BME280;3249;42.690;23.260;2023-04-01T07:26:08;93061.28;;;12.21;81.55
6433;BME280;3249;42.690;23.260;2023-04-01T07:29:08;93066.19;;;12.33;79.93
6433;BME280;3249;42.690;23.260;2023-04-01T07:32:09;93055.91;;;12.63;79.44
6433;BME280;3249;42.690;23.260;2023-04-01T07:34:45;93078.63;;;12.51;81.58
6433;BME280;3249;42.690;23.260;2023-04-01T07:37:24;93087.41;;;12.50;81.26
6433;BME280;3249;42.690;23.260;2023-04-01T07:40:05;93056.63;;;12.13;85.22
6433;BME280;3249;42.690;23.260;2023-04-01T07:42:51;93063.03;;;12.06;86.55
6433;BME280;3249;42.690;23.260;2023-04-01T07:45:28;93046.53;;;12.02;85.83
6433;BME280;3249;42.690;23.260;2023-04-01T07:48:12;93059.50;;;12.52;84.93
6433;BME280;3249;42.690;23.260;2023-04-01T07:50:52;93037.31;;;12.51;84.81
6433;BME280;3249;42.690;23.260;2023-04-01T07:53:32;93050.75;;;12.58;75.94
6433;BME280;3249;42.690;23.260;2023-04-01T07:56:10;93062.91;;;12.97;76.79
6433;BME280;3249;42.690;23.260;2023-04-01T07:58:53;93054.88;;;13.14;76.75
6433;BME280;3249;42.690;23.260;2023-04-01T08:01:57;93047.91;;;13.09;75.21
6433;BME280;3249;42.690;23.260;2023-04-01T08:04:40;93040.66;;;13.21;76.03
6433;BME280;3249;42.690;23.260;2023-04-01T08:07:15;93037.31;;;13.01;78.08
6433;BME280;3249;42.690;23.260;2023-04-01T08:10:18;93043.00;;;13.18;76.97
6433;BME280;3249;42.690;23.260;2023-04-01T08:13:14;93039.34;;;13.34;77.20
6433;BME280;3249;42.690;23.260;2023-04-01T08:16:13;93041.34;;;13.47;75.27
6433;BME280;3249;42.690;23.260;2023-04-01T08:18:55;93027.31;;;13.68;72.15
6433;BME280;3249;42.690;23.260;2023-04-01T08:21:30;93014.22;;;13.44;72.72
6433;BME280;3249;42.690;23.260;2023-04-01T08:24:13;93017.03;;;13.58;72.99
6433;BME280;3249;42.690;23.260;2023-04-01T08:26:49;92994.41;;;13.20;75.61
6433;BME280;3249;42.690;23.260;2023-04-01T08:29:33;93008.06;;;13.25;77.92
6433;BME280;3249;42.690;23.260;2023-04-01T08:32:09;92984.09;;;13.73;75.54
6433;BME280;3249;42.690;23.260;2023-04-01T08:34:45;92988.69;;;13.86;74.15
6433;BME280;3249;42.690;23.260;2023-04-01T08:37:30;92954.16;;;13.67;73.75
6433;BME280;3249;42.690;23.260;2023-04-01T08:40:13;92971.53;;;13.57;70.54
6433;BME280;3249;42.690;23.260;2023-04-01T08:42:55;92954.69;;;13.64;73.09
6433;BME280;3249;42.690;23.260;2023-04-01T08:45:41;92951.31;;;13.69;74.85
6433;BME280;3249;42.690;23.260;2023-04-01T08:48:27;92949.09;;;13.91;72.76
6433;BME280;3249;42.690;23.260;2023-04-01T08:51:18;92940.75;;;13.99;64.88
6433;BME280;3249;42.690;23.260;2023-04-01T08:54:08;92936.47;;;14.23;65.76
6433;BME280;3249;42.690;23.260;2023-04-01T08:56:53;92955.47;;;14.76;60.39
6433;BME280;3249;42.690;23.260;2023-04-01T08:59:42;92971.75;;;15.05;55.53
6433;BME280;3249;42.690;23.260;2023-04-01T09:02:54;92960.34;;;15.29;49.73
6433;BME280;3249;42.690;23.260;2023-04-01T09:05:36;92967.78;;;15.59;46.89
6433;BME280;3249;42.690;23.260;2023-04-01T09:08:18;92963.81;;;15.48;46.89
6433;BME280;3249;42.690;23.260;2023-04-01T09:11:00;92957.22;;;15.32;48.50
6433;BME280;3249;42.690;23.260;2023-04-01T09:17:38;92960.53;;;15.80;47.90
6433;BME280;3249;42.690;23.260;2023-04-01T09:20:39;92951.50;;;15.77;45.95
6433;BME280;3249;42.690;23.260;2023-04-01T09:23:29;92954.72;;;16.06;46.22
6433;BME280;3249;42.690;23.260;2023-04-01T09:26:17;92941.19;;;16.09;45.33
6433;BME280;3249;42.690;23.260;2023-04-01T09:28:57;92941.47;;;16.08;37.20
6433;BME280;3249;42.690;23.260;2023-04-01T09:32:00;92935.34;;;16.17;36.45
6433;BME280;3249;42.690;23.260;2023-04-01T09:34:55;92939.75;;;16.35;36.17
6433;BME280;3249;42.690;23.260;2023-04-01T09:37:35;92934.94;;;16.47;34.76
6433;BME280;3249;42.690;23.260;2023-04-01T09:40:18;92929.47;;;16.62;35.23
6433;BME280;3249;42.690;23.260;2023-04-01T09:43:04;92915.06;;;16.70;35.08
6433;BME280;3249;42.690;23.260;2023-04-01T09:45:46;92914.69;;;16.90;34.81
6433;BME280;3249;42.690;23.260;2023-04-01T09:51:26;92910.38;;;17.39;35.13
6433;BME280;3249;42.690;23.260;2023-04-01T09:54:11;92899.88;;;17.58;34.46
6433;BME280;3249;42.690;23.260;2023-04-01T10:00:15;92853.16;;;17.53;34.59
6433;BME280;3249;42.690;23.260;2023-04-01T10:03:19;92890.53;;;17.57;34.17
6433;BME280;3249;42.690;23.260;2023-04-01T10:09:19;92873.69;;;17.54;33.99
6433;BME280;3249;42.690;23.260;2023-04-01T10:12:08;92871.03;;;17.68;34.08
6433;BME280;3249;42.690;23.260;2023-04-01T10:15:26;92870.31;;;17.40;33.76
6433;BME280;3249;42.690;23.260;2023-04-01T10:21:11;92854.50;;;17.50;33.90
6433;BME280;3249;42.690;23.260;2023-04-01T10:24:06;92843.28;;;17.63;33.26
6433;BME280;3249;42.690;23.260;2023-04-01T10:27:04;92848.81;;;17.84;33.16
6433;BME280;3249;42.690;23.260;2023-04-01T10:30:23;92853.59;;;17.68;33.60
6433;BME280;3249;42.690;23.260;2023-04-01T10:33:46;92847.31;;;17.69;36.30
6433;BME280;3249;42.690;23.260;2023-04-01T10:36:54;92831.78;;;17.42;33.37
6433;BME280;3249;42.690;23.260;2023-04-01T10:43:23;92835.81;;;17.48;32.82
6433;BME280;3249;42.690;23.260;2023-04-01T10:46:26;92821.38;;;17.42;33.12
6433;BME280;3249;42.690;23.260;2023-04-01T10:49:28;92834.06;;;17.44;32.81
6433;BME280;3249;42.690;23.260;2023-04-01T10:52:28;92812.28;;;17.53;32.92
6433;BME280;3249;42.690;23.260;2023-04-01T10:55:54;92816.03;;;17.61;34.42
6433;BME280;3249;42.690;23.260;2023-04-01T11:02:50;92796.97;;;16.89;40.61
6433;BME280;3249;42.690;23.260;2023-04-01T11:05:51;92785.72;;;16.67;37.83
6433;BME280;3249;42.690;23.260;2023-04-01T11:08:53;92798.59;;;16.85;38.05
6433;BME280;3249;42.690;23.260;2023-04-01T11:27:36;92842.19;;;16.75;37.68
6433;BME280;3249;42.690;23.260;2023-04-01T11:30:16;92874.53;;;16.55;41.51
6433;BME280;3249;42.690;23.260;2023-04-01T11:33:00;92883.00;;;16.10;42.85
6433;BME280;3249;42.690;23.260;2023-04-01T11:38:57;92920.38;;;15.12;62.22
6433;BME280;3249;42.690;23.260;2023-04-01T11:41:52;92944.19;;;14.28;90.05
6433;BME280;3249;42.690;23.260;2023-04-01T11:44:47;92967.81;;;13.19;100.00
6433;BME280;3249;42.690;23.260;2023-04-01T11:47:52;92977.94;;;12.41;100.00
6433;BME280;3249;42.690;23.260;2023-04-01T11:50:38;92992.38;;;12.02;100.00
6433;BME280;3249;42.690;23.260;2023-04-01T11:53:16;93011.44;;;11.91;100.00
6433;BME280;3249;42.690;23.260;2023-04-01T11:55:59;93013.47;;;11.79;100.00
6433;BME280;3249;42.690;23.260;2023-04-01T11:58:58;93008.06;;;11.80;100.00
6433;BME280;3249;42.690;23.260;2023-04-01T12:01:53;93025.84;;;11.77;100.00
6433;BME280;3249;42.690;23.260;2023-04-01T12:04:41;92992.22;;;11.52;100.00
6433;BME280;3249;42.690;23.260;2023-04-01T12:07:27;93012.06;;;11.51;100.00
6433;BME280;3249;42.690;23.260;2023-04-01T12:10:14;92985.25;;;11.47;100.00
6433;BME280;3249;42.690;23.260;2023-04-01T12:12:57;92993.53;;;11.59;100.00
6433;BME280;3249;42.690;23.260;2023-04-01T12:15:35;92977.09;;;11.65;100.00
6433;BME280;3249;42.690;23.260;2023-04-01T12:18:17;92981.25;;;11.91;100.00
6433;BME280;3249;42.690;23.260;2023-04-01T12:20:52;92983.63;;;12.23;100.00
6433;BME280;3249;42.690;23.260;2023-04-01T12:23:44;92993.16;;;12.62;100.00
6433;BME280;3249;42.690;23.260;2023-04-01T12:26:41;92993.94;;;12.78;100.00
6433;BME280;3249;42.690;23.260;2023-04-01T12:29:27;92997.03;;;12.80;100.00
6433;BME280;3249;42.690;23.260;2023-04-01T12:32:03;93005.31;;;12.67;100.00
6433;BME280;3249;42.690;23.260;2023-04-01T12:34:48;93013.28;;;12.35;100.00
6433;BME280;3249;42.690;23.260;2023-04-01T12:37:30;93008.88;;;11.96;100.00
6433;BME280;3249;42.690;23.260;2023-04-01T12:43:19;92986.38;;;11.66;100.00
6433;BME280;3249;42.690;23.260;2023-04-01T12:46:05;92982.97;;;11.56;100.00
6433;BME280;3249;42.690;23.260;2023-04-01T12:49:01;92980.97;;;11.63;100.00
6433;BME280;3249;42.690;23.260;2023-04-01T12:55:01;92968.31;;;11.66;100.00
6433;BME280;3249;42.690;23.260;2023-04-01T13:00:47;92957.03;;;11.87;100.00
6433;BME280;3249;42.690;23.260;2023-04-01T13:03:31;92956.50;;;11.85;100.00
6433;BME280;3249;42.690;23.260;2023-04-01T13:06:25;92934.06;;;11.71;100.00
6433;BME280;3249;42.690;23.260;2023-04-01T13:09:06;92939.16;;;11.51;100.00
6433;BME280;3249;42.690;23.260;2023-04-01T13:11:54;92914.41;;;11.55;100.00
6433;BME280;3249;42.690;23.260;2023-04-01T13:17:29;92932.28;;;11.96;100.00
6433;BME280;3249;42.690;23.260;2023-04-01T13:20:14;92924.81;;;11.95;100.00
6433;BME280;3249;42.690;23.260;2023-04-01T13:22:54;92919.16;;;12.18;100.00
6433;BME280;3249;42.690;23.260;2023-04-01T13:25:31;92921.94;;;12.46;100.00
6433;BME280;3249;42.690;23.260;2023-04-01T13:28:09;92913.13;;;12.77;100.00
6433;BME280;3249;42.690;23.260;2023-04-01T13:30:48;92915.66;;;13.02;100.00
6433;BME280;3249;42.690;23.260;2023-04-01T13:33:25;92912.28;;;13.07;100.00
6433;BME280;3249;42.690;23.260;2023-04-01T13:36:11;92896.28;;;13.10;100.00
6433;BME280;3249;42.690;23.260;2023-04-01T13:41:50;92881.00;;;13.13;100.00
6433;BME280;3249;42.690;23.260;2023-04-01T13:44:29;92874.56;;;13.11;100.00
6433;BME280;3249;42.690;23.260;2023-04-01T13:47:19;92873.28;;;13.08;100.00
6433;BME280;3249;42.690;23.260;2023-04-01T13:50:17;92872.75;;;13.11;100.00
6433;BME280;3249;42.690;23.260;2023-04-01T13:53:09;92866.03;;;13.10;100.00
6433;BME280;3249;42.690;23.260;2023-04-01T13:56:08;92854.56;;;13.26;100.00
6433;BME280;3249;42.690;23.260;2023-04-01T13:59:18;92856.81;;;13.43;100.00
6433;BME280;3249;42.690;23.260;2023-04-01T14:01:51;92855.25;;;13.47;98.56
6433;BME280;3249;42.690;23.260;2023-04-01T14:04:53;92854.16;;;13.58;93.24
6433;BME280;3249;42.690;23.260;2023-04-01T14:07:46;92846.88;;;13.65;95.21
6433;BME280;3249;42.690;23.260;2023-04-01T14:10:27;92845.78;;;13.71;89.83
6433;BME280;3249;42.690;23.260;2023-04-01T14:13:05;92848.56;;;13.79;93.65
6433;BME280;3249;42.690;23.260;2023-04-01T14:15:42;92848.78;;;13.83;95.21
6433;BME280;3249;42.690;23.260;2023-04-01T14:18:32;92849.56;;;13.83;93.22
6433;BME280;3249;42.690;23.260;2023-04-01T14:21:17;92828.78;;;13.93;91.22
6433;BME280;3249;42.690;23.260;2023-04-01T14:24:20;92825.13;;;14.00;84.96
6433;BME280;3249;42.690;23.260;2023-04-01T14:27:12;92818.94;;;13.96;83.82
6433;BME280;3249;42.690;23.260;2023-04-01T14:30:00;92813.88;;;14.14;80.65
6433;BME280;3249;42.690;23.260;2023-04-01T14:32:40;92807.16;;;14.13;80.11
6433;BME280;3249;42.690;23.260;2023-04-01T14:35:35;92810.16;;;14.20;79.44
6433;BME280;3249;42.690;23.260;2023-04-01T14:38:23;92803.13;;;14.31;79.25
6433;BME280;3249;42.690;23.260;2023-04-01T14:41:01;92799.81;;;14.20;76.81
6433;BME280;3249;42.690;23.260;2023-04-01T14:43:52;92802.41;;;14.20;81.00
6433;BME280;3249;42.690;23.260;2023-04-01T14:46:34;92785.53;;;13.99;77.35
6433;BME280;3249;42.690;23.260;2023-04-01T14:49:17;92810.47;;;14.19;79.37
6433;BME280;3249;42.690;23.260;2023-04-01T14:51:49;92812.25;;;14.23;76.63
6433;BME280;3249;42.690;23.260;2023-04-01T14:54:30;92809.84;;;14.32;75.71
6433;BME280;3249;42.690;23.260;2023-04-01T14:57:12;92805.53;;;14.22;74.87
6433;BME280;3249;42.690;23.260;2023-04-01T14:59:51;92801.66;;;14.20;76.74
6433;BME280;3249;42.690;23.260;2023-04-01T15:02:36;92812.75;;;14.20;78.02
6433;BME280;3249;42.690;23.260;2023-04-01T15:05:15;92811.00;;;14.16;80.79
6433;BME280;3249;42.690;23.260;2023-04-01T15:08:13;92812.09;;;14.10;81.00
6433;BME280;3249;42.690;23.260;2023-04-01T15:11:10;92810.34;;;14.00;85.36
6433;BME280;3249;42.690;23.260;2023-04-01T15:14:02;92807.50;;;14.02;80.81
6433;BME280;3249;42.690;23.260;2023-04-01T15:16:44;92824.22;;;14.14;76.83
6433;BME280;3249;42.690;23.260;2023-04-01T15:19:23;92812.19;;;14.00;75.06
6433;BME280;3249;42.690;23.260;2023-04-01T15:22:06;92833.88;;;14.04;70.42
6433;BME280;3249;42.690;23.260;2023-04-01T15:24:47;92828.19;;;14.02;68.69